sensor_id;sensor_type;location;lat;lon;timestamp;P1;durP1;ratioP1;P2;durP2;ratioP2
11034;SDS011;5571;48.110;-1.706;2023-02-28T00:00:17;9.57;;;5.30;;
11034;SDS011;5571;48.110;-1.706;2023-02-28T00:02:44;10.07;;;4.90;;
11034;SDS011;5571;48.110;-1.706;2023-02-28T00:05:11;9.03;;;5.20;;
11034;SDS011;5571;48.110;-1.706;2023-02-28T00:07:38;10.20;;;5.07;;
11034;SDS011;5571;48.110;-1.706;2023-02-28T00:10:05;10.17;;;5.20;;
11034;SDS011;5571;48.110;-1.706;2023-02-28T00:12:33;7.03;;;4.80;;
11034;SDS011;5571;48.110;-1.706;2023-02-28T00:14:59;7.67;;;5.17;;
11034;SDS011;5571;48.110;-1.706;2023-02-28T00:17:25;10.30;;;5.40;;
11034;SDS011;5571;48.110;-1.706;2023-02-28T00:19:50;7.33;;;4.20;;
11034;SDS011;5571;48.110;-1.706;2023-02-28T00:22:17;7.67;;;4.90;;
11034;SDS011;5571;48.110;-1.706;2023-02-28T00:24:45;13.97;;;4.90;;
11034;SDS011;5571;48.110;-1.706;2023-02-28T00:27:12;12.00;;;4.73;;
11034;SDS011;5571;48.110;-1.706;2023-02-28T00:29:38;7.43;;;4.83;;
11034;SDS011;5571;48.110;-1.706;2023-02-28T00:32:04;7.93;;;4.70;;
11034;SDS011;5571;48.110;-1.706;2023-02-28T00:34:30;10.37;;;4.60;;
11034;SDS011;5571;48.110;-1.706;2023-02-28T00:37:02;6.40;;;4.50;;
11034;SDS011;5571;48.110;-1.706;2023-02-28T00:39:33;7.87;;;5.10;;
11034;SDS011;5571;48.110;-1.706;2023-02-28T00:42:00;9.77;;;5.00;;
11034;SDS011;5571;48.110;-1.706;2023-02-28T00:44:27;10.17;;;4.93;;
11034;SDS011;5571;48.110;-1.706;2023-02-28T00:46:53;7.77;;;5.03;;
11034;SDS011;5571;48.110;-1.706;2023-02-28T00:49:19;11.33;;;4.80;;
11034;SDS011;5571;48.110;-1.706;2023-02-28T00:51:45;6.27;;;4.60;;
11034;SDS011;5571;48.110;-1.706;2023-02-28T00:54:11;13.23;;;4.87;;
11034;SDS011;5571;48.110;-1.706;2023-02-28T00:56:37;9.37;;;4.50;;
11034;SDS011;5571;48.110;-1.706;2023-02-28T00:59:02;11.17;;;5.20;;
11034;SDS011;5571;48.110;-1.706;2023-02-28T01:01:28;9.90;;;4.67;;
11034;SDS011;5571;48.110;-1.706;2023-02-28T01:03:53;9.43;;;4.70;;
11034;SDS011;5571;48.110;-1.706;2023-02-28T01:06:19;6.20;;;5.07;;
11034;SDS011;5571;48.110;-1.706;2023-02-28T01:08:45;6.27;;;4.87;;
11034;SDS011;5571;48.110;-1.706;2023-02-28T01:11:11;9.43;;;5.07;;
11034;SDS011;5571;48.110;-1.706;2023-02-28T01:13:39;8.93;;;5.27;;
11034;SDS011;5571;48.110;-1.706;2023-02-28T01:16:05;9.17;;;4.30;;
11034;SDS011;5571;48.110;-1.706;2023-02-28T01:18:31;7.53;;;4.50;;
11034;SDS011;5571;48.110;-1.706;2023-02-28T01:20:57;7.57;;;4.53;;
11034;SDS011;5571;48.110;-1.706;2023-02-28T01:23:23;7.67;;;4.80;;
11034;SDS011;5571;48.110;-1.706;2023-02-28T01:25:51;7.57;;;4.87;;
11034;SDS011;5571;48.110;-1.706;2023-02-28T01:28:17;8.30;;;4.43;;
11034;SDS011;5571;48.110;-1.706;2023-02-28T01:30:47;7.47;;;4.80;;
11034;SDS011;5571;48.110;-1.706;2023-02-28T01:33:14;9.37;;;4.90;;
11034;SDS011;5571;48.110;-1.706;2023-02-28T01:35:40;7.00;;;4.80;;
11034;SDS011;5571;48.110;-1.706;2023-02-28T01:38:06;11.83;;;4.67;;
11034;SDS011;5571;48.110;-1.706;2023-02-28T01:40:32;7.60;;;4.60;;
11034;SDS011;5571;48.110;-1.706;2023-02-28T01:42:57;7.50;;;4.67;;
11034;SDS011;5571;48.110;-1.706;2023-02-28T01:45:25;8.07;;;4.97;;
11034;SDS011;5571;48.110;-1.706;2023-02-28T01:47:59;10.10;;;4.93;;
11034;SDS011;5571;48.110;-1.706;2023-02-28T01:50:28;7.97;;;4.60;;
11034;SDS011;5571;48.110;-1.706;2023-02-28T01:53:00;6.93;;;4.70;;
11034;SDS011;5571;48.110;-1.706;2023-02-28T01:55:29;6.50;;;4.60;;
11034;SDS011;5571;48.110;-1.706;2023-02-28T01:57:57;5.57;;;4.07;;
11034;SDS011;5571;48.110;-1.706;2023-02-28T02:00:27;6.90;;;4.53;;
11034;SDS011;5571;48.110;-1.706;2023-02-28T02:02:56;6.27;;;4.47;;
11034;SDS011;5571;48.110;-1.706;2023-02-28T02:05:25;7.27;;;4.60;;
11034;SDS011;5571;48.110;-1.706;2023-02-28T02:08:09;5.43;;;4.23;;
11034;SDS011;5571;48.110;-1.706;2023-02-28T02:10:54;8.13;;;4.60;;
11034;SDS011;5571;48.110;-1.706;2023-02-28T02:13:30;9.07;;;4.70;;
11034;SDS011;5571;48.110;-1.706;2023-02-28T02:18:52;6.07;;;4.37;;
11034;SDS011;5571;48.110;-1.706;2023-02-28T02:26:58;7.10;;;4.80;;
11034;SDS011;5571;48.110;-1.706;2023-02-28T02:29:43;14.83;;;5.07;;
11034;SDS011;5571;48.110;-1.706;2023-02-28T02:35:37;9.53;;;4.80;;
11034;SDS011;5571;48.110;-1.706;2023-02-28T02:40:54;5.37;;;4.87;;
11034;SDS011;5571;48.110;-1.706;2023-02-28T02:43:35;11.07;;;5.33;;
11034;SDS011;5571;48.110;-1.706;2023-02-28T02:46:29;10.57;;;4.90;;
11034;SDS011;5571;48.110;-1.706;2023-02-28T02:48:57;11.13;;;5.17;;
11034;SDS011;5571;48.110;-1.706;2023-02-28T02:51:25;7.40;;;5.00;;
11034;SDS011;5571;48.110;-1.706;2023-02-28T02:54:12;6.90;;;4.80;;
11034;SDS011;5571;48.110;-1.706;2023-02-28T02:56:41;6.07;;;5.07;;
11034;SDS011;5571;48.110;-1.706;2023-02-28T02:59:10;9.00;;;5.30;;
11034;SDS011;5571;48.110;-1.706;2023-02-28T03:01:37;6.67;;;4.63;;
11034;SDS011;5571;48.110;-1.706;2023-02-28T03:04:16;9.20;;;5.40;;
11034;SDS011;5571;48.110;-1.706;2023-02-28T03:06:44;9.90;;;4.70;;
11034;SDS011;5571;48.110;-1.706;2023-02-28T03:09:10;7.53;;;5.33;;
11034;SDS011;5571;48.110;-1.706;2023-02-28T03:11:36;9.13;;;5.43;;
11034;SDS011;5571;48.110;-1.706;2023-02-28T03:14:18;16.97;;;10.20;;
11034;SDS011;5571;48.110;-1.706;2023-02-28T03:23:08;14.40;;;8.37;;
11034;SDS011;5571;48.110;-1.706;2023-02-28T03:25:59;9.77;;;7.17;;
11034;SDS011;5571;48.110;-1.706;2023-02-28T03:31:08;9.97;;;7.00;;
11034;SDS011;5571;48.110;-1.706;2023-02-28T03:33:43;7.60;;;6.00;;
11034;SDS011;5571;48.110;-1.706;2023-02-28T03:36:20;6.90;;;5.37;;
11034;SDS011;5571;48.110;-1.706;2023-02-28T03:38:54;7.33;;;5.67;;
11034;SDS011;5571;48.110;-1.706;2023-02-28T03:44:51;9.47;;;5.67;;
11034;SDS011;5571;48.110;-1.706;2023-02-28T03:47:23;8.73;;;5.57;;
11034;SDS011;5571;48.110;-1.706;2023-02-28T03:52:36;11.63;;;6.10;;
11034;SDS011;5571;48.110;-1.706;2023-02-28T03:55:08;8.07;;;5.93;;
11034;SDS011;5571;48.110;-1.706;2023-02-28T03:57:42;8.60;;;6.10;;
11034;SDS011;5571;48.110;-1.706;2023-02-28T04:00:36;12.80;;;5.97;;
11034;SDS011;5571;48.110;-1.706;2023-02-28T04:03:04;8.30;;;5.87;;
11034;SDS011;5571;48.110;-1.706;2023-02-28T04:05:30;10.67;;;6.20;;
11034;SDS011;5571;48.110;-1.706;2023-02-28T04:08:04;8.93;;;5.73;;
11034;SDS011;5571;48.110;-1.706;2023-02-28T04:10:33;7.13;;;6.33;;
11034;SDS011;5571;48.110;-1.706;2023-02-28T04:12:58;8.57;;;6.00;;
11034;SDS011;5571;48.110;-1.706;2023-02-28T04:15:24;7.77;;;6.23;;
11034;SDS011;5571;48.110;-1.706;2023-02-28T04:17:52;11.27;;;6.20;;
11034;SDS011;5571;48.110;-1.706;2023-02-28T04:20:18;10.00;;;6.63;;
11034;SDS011;5571;48.110;-1.706;2023-02-28T04:22:43;11.70;;;6.10;;
11034;SDS011;5571;48.110;-1.706;2023-02-28T04:25:09;6.63;;;5.93;;
11034;SDS011;5571;48.110;-1.706;2023-02-28T04:27:35;10.67;;;6.53;;
11034;SDS011;5571;48.110;-1.706;2023-02-28T04:30:00;7.33;;;6.03;;
11034;SDS011;5571;48.110;-1.706;2023-02-28T04:32:26;8.47;;;6.60;;
11034;SDS011;5571;48.110;-1.706;2023-02-28T04:34:52;7.80;;;5.70;;
11034;SDS011;5571;48.110;-1.706;2023-02-28T04:37:17;10.70;;;6.60;;
11034;SDS011;5571;48.110;-1.706;2023-02-28T04:39:43;8.63;;;6.70;;
11034;SDS011;5571;48.110;-1.706;2023-02-28T04:42:09;9.20;;;6.73;;
11034;SDS011;5571;48.110;-1.706;2023-02-28T04:44:35;11.93;;;7.23;;
11034;SDS011;5571;48.110;-1.706;2023-02-28T04:47:00;8.93;;;7.10;;
11034;SDS011;5571;48.110;-1.706;2023-02-28T04:49:26;10.83;;;7.07;;
11034;SDS011;5571;48.110;-1.706;2023-02-28T04:51:52;7.40;;;6.63;;
11034;SDS011;5571;48.110;-1.706;2023-02-28T04:54:18;8.60;;;7.03;;
11034;SDS011;5571;48.110;-1.706;2023-02-28T04:56:43;11.80;;;7.53;;
11034;SDS011;5571;48.110;-1.706;2023-02-28T04:59:09;10.73;;;6.80;;
11034;SDS011;5571;48.110;-1.706;2023-02-28T05:01:35;9.07;;;6.80;;
11034;SDS011;5571;48.110;-1.706;2023-02-28T05:04:01;11.43;;;7.07;;
11034;SDS011;5571;48.110;-1.706;2023-02-28T05:06:30;10.43;;;7.13;;
11034;SDS011;5571;48.110;-1.706;2023-02-28T05:08:57;10.83;;;6.90;;
11034;SDS011;5571;48.110;-1.706;2023-02-28T05:11:24;14.40;;;7.53;;
11034;SDS011;5571;48.110;-1.706;2023-02-28T05:13:58;13.33;;;7.27;;
11034;SDS011;5571;48.110;-1.706;2023-02-28T05:16:24;12.93;;;7.50;;
11034;SDS011;5571;48.110;-1.706;2023-02-28T05:18:50;8.87;;;7.80;;
11034;SDS011;5571;48.110;-1.706;2023-02-28T05:21:26;13.43;;;8.20;;
11034;SDS011;5571;48.110;-1.706;2023-02-28T05:23:54;13.70;;;8.03;;
11034;SDS011;5571;48.110;-1.706;2023-02-28T05:26:21;12.03;;;7.97;;
11034;SDS011;5571;48.110;-1.706;2023-02-28T05:28:47;10.07;;;8.00;;
11034;SDS011;5571;48.110;-1.706;2023-02-28T05:31:13;11.37;;;7.20;;
11034;SDS011;5571;48.110;-1.706;2023-02-28T05:33:38;14.97;;;8.67;;
11034;SDS011;5571;48.110;-1.706;2023-02-28T05:36:04;11.97;;;7.63;;
11034;SDS011;5571;48.110;-1.706;2023-02-28T05:38:31;9.57;;;7.70;;
11034;SDS011;5571;48.110;-1.706;2023-02-28T05:40:56;9.03;;;7.50;;
11034;SDS011;5571;48.110;-1.706;2023-02-28T05:43:22;9.20;;;8.20;;
11034;SDS011;5571;48.110;-1.706;2023-02-28T05:45:48;9.07;;;8.13;;
11034;SDS011;5571;48.110;-1.706;2023-02-28T05:48:14;10.53;;;8.33;;
11034;SDS011;5571;48.110;-1.706;2023-02-28T05:50:39;11.43;;;8.20;;
11034;SDS011;5571;48.110;-1.706;2023-02-28T05:53:05;10.17;;;8.00;;
11034;SDS011;5571;48.110;-1.706;2023-02-28T05:55:31;11.37;;;8.07;;
11034;SDS011;5571;48.110;-1.706;2023-02-28T05:57:57;9.43;;;7.90;;
11034;SDS011;5571;48.110;-1.706;2023-02-28T06:00:23;12.53;;;8.47;;
11034;SDS011;5571;48.110;-1.706;2023-02-28T06:02:49;11.27;;;8.23;;
11034;SDS011;5571;48.110;-1.706;2023-02-28T06:05:16;12.73;;;8.57;;
11034;SDS011;5571;48.110;-1.706;2023-02-28T06:07:42;10.33;;;8.00;;
11034;SDS011;5571;48.110;-1.706;2023-02-28T06:10:09;11.60;;;8.97;;
11034;SDS011;5571;48.110;-1.706;2023-02-28T06:12:36;11.23;;;8.77;;
11034;SDS011;5571;48.110;-1.706;2023-02-28T06:15:02;10.57;;;8.70;;
11034;SDS011;5571;48.110;-1.706;2023-02-28T06:17:28;11.43;;;8.87;;
11034;SDS011;5571;48.110;-1.706;2023-02-28T06:19:54;12.33;;;8.70;;
11034;SDS011;5571;48.110;-1.706;2023-02-28T06:22:20;14.03;;;8.63;;
11034;SDS011;5571;48.110;-1.706;2023-02-28T06:24:45;12.40;;;9.10;;
11034;SDS011;5571;48.110;-1.706;2023-02-28T06:27:11;12.63;;;8.73;;
11034;SDS011;5571;48.110;-1.706;2023-02-28T06:29:37;14.07;;;8.67;;
11034;SDS011;5571;48.110;-1.706;2023-02-28T06:32:04;15.60;;;9.37;;
11034;SDS011;5571;48.110;-1.706;2023-02-28T06:34:31;11.47;;;8.87;;
11034;SDS011;5571;48.110;-1.706;2023-02-28T06:36:58;10.93;;;8.67;;
11034;SDS011;5571;48.110;-1.706;2023-02-28T06:39:27;14.80;;;9.30;;
11034;SDS011;5571;48.110;-1.706;2023-02-28T06:41:56;9.60;;;8.60;;
11034;SDS011;5571;48.110;-1.706;2023-02-28T06:44:24;10.83;;;8.87;;
11034;SDS011;5571;48.110;-1.706;2023-02-28T06:46:49;11.40;;;9.07;;
11034;SDS011;5571;48.110;-1.706;2023-02-28T06:49:15;15.50;;;9.90;;
11034;SDS011;5571;48.110;-1.706;2023-02-28T06:51:42;11.93;;;9.50;;
11034;SDS011;5571;48.110;-1.706;2023-02-28T06:54:10;12.03;;;10.03;;
11034;SDS011;5571;48.110;-1.706;2023-02-28T06:56:36;12.40;;;9.03;;
11034;SDS011;5571;48.110;-1.706;2023-02-28T06:59:02;13.27;;;9.80;;
11034;SDS011;5571;48.110;-1.706;2023-02-28T07:01:28;16.00;;;10.07;;
11034;SDS011;5571;48.110;-1.706;2023-02-28T07:03:54;12.60;;;10.10;;
11034;SDS011;5571;48.110;-1.706;2023-02-28T07:06:20;11.43;;;9.63;;
11034;SDS011;5571;48.110;-1.706;2023-02-28T07:08:50;13.50;;;10.10;;
11034;SDS011;5571;48.110;-1.706;2023-02-28T07:11:18;23.93;;;10.13;;
11034;SDS011;5571;48.110;-1.706;2023-02-28T07:13:44;14.47;;;10.40;;
11034;SDS011;5571;48.110;-1.706;2023-02-28T07:16:11;14.13;;;10.63;;
11034;SDS011;5571;48.110;-1.706;2023-02-28T07:18:37;13.33;;;10.93;;
11034;SDS011;5571;48.110;-1.706;2023-02-28T07:21:04;16.80;;;10.57;;
11034;SDS011;5571;48.110;-1.706;2023-02-28T07:23:31;13.73;;;10.67;;
11034;SDS011;5571;48.110;-1.706;2023-02-28T07:25:57;18.80;;;10.73;;
11034;SDS011;5571;48.110;-1.706;2023-02-28T07:28:23;16.10;;;10.30;;
11034;SDS011;5571;48.110;-1.706;2023-02-28T07:30:49;16.03;;;10.47;;
11034;SDS011;5571;48.110;-1.706;2023-02-28T07:33:15;12.93;;;10.50;;
11034;SDS011;5571;48.110;-1.706;2023-02-28T07:35:40;18.60;;;11.23;;
11034;SDS011;5571;48.110;-1.706;2023-02-28T07:38:06;16.67;;;10.90;;
11034;SDS011;5571;48.110;-1.706;2023-02-28T07:40:35;15.07;;;10.43;;
11034;SDS011;5571;48.110;-1.706;2023-02-28T07:43:01;13.87;;;10.80;;
11034;SDS011;5571;48.110;-1.706;2023-02-28T07:45:28;16.07;;;11.67;;
11034;SDS011;5571;48.110;-1.706;2023-02-28T07:47:54;13.20;;;11.57;;
11034;SDS011;5571;48.110;-1.706;2023-02-28T07:50:20;14.87;;;11.47;;
11034;SDS011;5571;48.110;-1.706;2023-02-28T07:52:46;13.90;;;11.03;;
11034;SDS011;5571;48.110;-1.706;2023-02-28T07:55:12;15.27;;;11.27;;
11034;SDS011;5571;48.110;-1.706;2023-02-28T07:57:38;13.90;;;10.87;;
11034;SDS011;5571;48.110;-1.706;2023-02-28T08:00:06;16.73;;;11.73;;
11034;SDS011;5571;48.110;-1.706;2023-02-28T08:02:38;15.00;;;11.80;;
11034;SDS011;5571;48.110;-1.706;2023-02-28T08:05:04;15.07;;;11.17;;
11034;SDS011;5571;48.110;-1.706;2023-02-28T08:07:30;19.83;;;11.63;;
11034;SDS011;5571;48.110;-1.706;2023-02-28T08:09:58;14.80;;;11.27;;
11034;SDS011;5571;48.110;-1.706;2023-02-28T08:12:23;17.13;;;11.70;;
11034;SDS011;5571;48.110;-1.706;2023-02-28T08:14:49;14.37;;;11.20;;
11034;SDS011;5571;48.110;-1.706;2023-02-28T08:17:15;19.37;;;12.07;;
11034;SDS011;5571;48.110;-1.706;2023-02-28T08:19:41;17.30;;;11.20;;
11034;SDS011;5571;48.110;-1.706;2023-02-28T08:22:06;15.83;;;11.70;;
11034;SDS011;5571;48.110;-1.706;2023-02-28T08:24:32;14.87;;;11.57;;
11034;SDS011;5571;48.110;-1.706;2023-02-28T08:26:58;15.00;;;11.87;;
11034;SDS011;5571;48.110;-1.706;2023-02-28T08:29:24;19.00;;;11.53;;
11034;SDS011;5571;48.110;-1.706;2023-02-28T08:31:49;17.10;;;11.40;;
11034;SDS011;5571;48.110;-1.706;2023-02-28T08:34:15;15.73;;;12.07;;
11034;SDS011;5571;48.110;-1.706;2023-02-28T08:36:41;19.93;;;12.53;;
11034;SDS011;5571;48.110;-1.706;2023-02-28T08:39:09;17.40;;;11.93;;
11034;SDS011;5571;48.110;-1.706;2023-02-28T08:41:35;17.43;;;11.70;;
11034;SDS011;5571;48.110;-1.706;2023-02-28T08:44:01;15.40;;;12.95;;
11034;SDS011;5571;48.110;-1.706;2023-02-28T08:46:27;17.13;;;12.50;;
11034;SDS011;5571;48.110;-1.706;2023-02-28T08:48:54;15.87;;;13.03;;
11034;SDS011;5571;48.110;-1.706;2023-02-28T08:51:21;14.80;;;12.10;;
11034;SDS011;5571;48.110;-1.706;2023-02-28T08:53:51;15.67;;;12.30;;
11034;SDS011;5571;48.110;-1.706;2023-02-28T08:56:21;21.23;;;12.57;;
11034;SDS011;5571;48.110;-1.706;2023-02-28T08:58:47;15.63;;;12.40;;
11034;SDS011;5571;48.110;-1.706;2023-02-28T09:01:14;16.87;;;13.07;;
11034;SDS011;5571;48.110;-1.706;2023-02-28T09:03:42;16.57;;;12.80;;
11034;SDS011;5571;48.110;-1.706;2023-02-28T09:06:09;16.33;;;12.60;;
11034;SDS011;5571;48.110;-1.706;2023-02-28T09:08:36;13.93;;;12.17;;
11034;SDS011;5571;48.110;-1.706;2023-02-28T09:11:02;17.07;;;13.33;;
11034;SDS011;5571;48.110;-1.706;2023-02-28T09:13:28;16.70;;;13.10;;
11034;SDS011;5571;48.110;-1.706;2023-02-28T09:15:56;17.57;;;13.13;;
11034;SDS011;5571;48.110;-1.706;2023-02-28T09:18:27;17.87;;;12.17;;
11034;SDS011;5571;48.110;-1.706;2023-02-28T09:20:53;18.67;;;12.60;;
11034;SDS011;5571;48.110;-1.706;2023-02-28T09:23:19;16.17;;;11.87;;
11034;SDS011;5571;48.110;-1.706;2023-02-28T09:25:49;17.45;;;12.55;;
11034;SDS011;5571;48.110;-1.706;2023-02-28T09:28:17;17.83;;;12.83;;
11034;SDS011;5571;48.110;-1.706;2023-02-28T09:30:47;17.03;;;12.40;;
11034;SDS011;5571;48.110;-1.706;2023-02-28T09:33:14;15.63;;;12.30;;
11034;SDS011;5571;48.110;-1.706;2023-02-28T09:35:41;15.93;;;12.17;;
11034;SDS011;5571;48.110;-1.706;2023-02-28T09:38:08;15.03;;;12.00;;
11034;SDS011;5571;48.110;-1.706;2023-02-28T09:40:39;18.50;;;12.17;;
11034;SDS011;5571;48.110;-1.706;2023-02-28T09:43:18;15.90;;;11.40;;
11034;SDS011;5571;48.110;-1.706;2023-02-28T09:45:48;15.57;;;11.20;;
11034;SDS011;5571;48.110;-1.706;2023-02-28T09:48:19;12.67;;;10.53;;
11034;SDS011;5571;48.110;-1.706;2023-02-28T09:50:55;12.53;;;10.10;;
11034;SDS011;5571;48.110;-1.706;2023-02-28T09:53:29;12.77;;;10.63;;
11034;SDS011;5571;48.110;-1.706;2023-02-28T09:56:11;14.30;;;10.07;;
11034;SDS011;5571;48.110;-1.706;2023-02-28T09:59:06;12.23;;;9.30;;
11034;SDS011;5571;48.110;-1.706;2023-02-28T10:10:16;13.00;;;9.23;;
11034;SDS011;5571;48.110;-1.706;2023-02-28T10:12:59;12.97;;;9.60;;
11034;SDS011;5571;48.110;-1.706;2023-02-28T10:15:30;11.97;;;8.97;;
11034;SDS011;5571;48.110;-1.706;2023-02-28T10:17:58;11.23;;;9.00;;
11034;SDS011;5571;48.110;-1.706;2023-02-28T10:20:28;12.03;;;8.67;;
11034;SDS011;5571;48.110;-1.706;2023-02-28T10:23:02;9.60;;;8.27;;
11034;SDS011;5571;48.110;-1.706;2023-02-28T10:25:39;8.87;;;7.97;;
11034;SDS011;5571;48.110;-1.706;2023-02-28T10:28:12;13.73;;;7.80;;
11034;SDS011;5571;48.110;-1.706;2023-02-28T10:30:44;8.93;;;7.00;;
11034;SDS011;5571;48.110;-1.706;2023-02-28T10:33:17;8.63;;;6.47;;
11034;SDS011;5571;48.110;-1.706;2023-02-28T10:35:46;7.20;;;6.20;;
11034;SDS011;5571;48.110;-1.706;2023-02-28T10:38:16;6.33;;;5.40;;
11034;SDS011;5571;48.110;-1.706;2023-02-28T10:40:44;7.97;;;5.03;;
11034;SDS011;5571;48.110;-1.706;2023-02-28T10:45:39;8.50;;;5.80;;
11034;SDS011;5571;48.110;-1.706;2023-02-28T10:48:48;7.07;;;6.20;;
11034;SDS011;5571;48.110;-1.706;2023-02-28T10:51:25;8.90;;;5.93;;
11034;SDS011;5571;48.110;-1.706;2023-02-28T10:54:03;6.33;;;5.60;;
11034;SDS011;5571;48.110;-1.706;2023-02-28T10:56:30;7.43;;;6.07;;
11034;SDS011;5571;48.110;-1.706;2023-02-28T10:59:01;6.40;;;5.70;;
11034;SDS011;5571;48.110;-1.706;2023-02-28T11:01:45;6.87;;;5.37;;
11034;SDS011;5571;48.110;-1.706;2023-02-28T11:04:18;8.87;;;5.70;;
11034;SDS011;5571;48.110;-1.706;2023-02-28T11:06:44;6.33;;;5.53;;
11034;SDS011;5571;48.110;-1.706;2023-02-28T11:09:53;6.30;;;5.00;;
11034;SDS011;5571;48.110;-1.706;2023-02-28T11:12:04;5.27;;;4.33;;
11034;SDS011;5571;48.110;-1.706;2023-02-28T11:14:49;6.57;;;4.87;;
11034;SDS011;5571;48.110;-1.706;2023-02-28T11:17:22;6.87;;;4.27;;
11034;SDS011;5571;48.110;-1.706;2023-02-28T11:19:51;8.83;;;4.50;;
11034;SDS011;5571;48.110;-1.706;2023-02-28T11:22:29;5.80;;;5.30;;
11034;SDS011;5571;48.110;-1.706;2023-02-28T11:24:59;8.53;;;4.83;;
11034;SDS011;5571;48.110;-1.706;2023-02-28T11:29:58;7.40;;;5.00;;
11034;SDS011;5571;48.110;-1.706;2023-02-28T11:32:26;5.17;;;4.50;;
11034;SDS011;5571;48.110;-1.706;2023-02-28T11:35:03;5.50;;;4.27;;
11034;SDS011;5571;48.110;-1.706;2023-02-28T11:37:35;4.93;;;4.17;;
11034;SDS011;5571;48.110;-1.706;2023-02-28T11:40:02;5.90;;;4.03;;
11034;SDS011;5571;48.110;-1.706;2023-02-28T11:56:29;4.53;;;3.93;;
11034;SDS011;5571;48.110;-1.706;2023-02-28T12:23:59;5.43;;;3.77;;
11034;SDS011;5571;48.110;-1.706;2023-02-28T12:26:39;5.20;;;3.70;;
11034;SDS011;5571;48.110;-1.706;2023-02-28T12:29:19;6.50;;;3.63;;
11034;SDS011;5571;48.110;-1.706;2023-02-28T12:34:44;4.53;;;3.90;;
11034;SDS011;5571;48.110;-1.706;2023-02-28T12:37:15;4.73;;;3.70;;
11034;SDS011;5571;48.110;-1.706;2023-02-28T12:39:48;4.33;;;3.93;;
11034;SDS011;5571;48.110;-1.706;2023-02-28T12:42:24;4.13;;;3.73;;
11034;SDS011;5571;48.110;-1.706;2023-02-28T12:45:10;4.67;;;3.50;;
11034;SDS011;5571;48.110;-1.706;2023-02-28T12:47:43;4.90;;;3.33;;
11034;SDS011;5571;48.110;-1.706;2023-02-28T12:50:11;6.30;;;3.87;;
11034;SDS011;5571;48.110;-1.706;2023-02-28T12:52:53;5.30;;;3.50;;
11034;SDS011;5571;48.110;-1.706;2023-02-28T12:58:25;3.37;;;3.07;;
11034;SDS011;5571;48.110;-1.706;2023-02-28T13:01:05;4.47;;;3.00;;
11034;SDS011;5571;48.110;-1.706;2023-02-28T13:09:17;4.20;;;3.10;;
11034;SDS011;5571;48.110;-1.706;2023-02-28T13:11:52;5.00;;;3.97;;
11034;SDS011;5571;48.110;-1.706;2023-02-28T13:17:12;3.77;;;3.13;;
11034;SDS011;5571;48.110;-1.706;2023-02-28T13:19:43;9.00;;;3.20;;
11034;SDS011;5571;48.110;-1.706;2023-02-28T13:27:47;4.30;;;2.97;;
11034;SDS011;5571;48.110;-1.706;2023-02-28T13:35:58;3.50;;;3.20;;
11034;SDS011;5571;48.110;-1.706;2023-02-28T13:38:34;3.60;;;3.23;;
11034;SDS011;5571;48.110;-1.706;2023-02-28T13:44:00;4.63;;;3.47;;
11034;SDS011;5571;48.110;-1.706;2023-02-28T13:46:30;3.57;;;3.23;;
11034;SDS011;5571;48.110;-1.706;2023-02-28T13:49:17;4.47;;;3.50;;
11034;SDS011;5571;48.110;-1.706;2023-02-28T13:51:44;4.97;;;4.00;;
11034;SDS011;5571;48.110;-1.706;2023-02-28T13:57:28;4.83;;;3.63;;
11034;SDS011;5571;48.110;-1.706;2023-02-28T14:05:47;4.10;;;3.70;;
11034;SDS011;5571;48.110;-1.706;2023-02-28T14:08:35;4.43;;;3.73;;
11034;SDS011;5571;48.110;-1.706;2023-02-28T14:11:05;7.23;;;3.90;;
11034;SDS011;5571;48.110;-1.706;2023-02-28T14:16:15;4.63;;;4.23;;
11034;SDS011;5571;48.110;-1.706;2023-02-28T14:18:49;4.83;;;3.53;;
11034;SDS011;5571;48.110;-1.706;2023-02-28T14:21:24;6.90;;;3.80;;
11034;SDS011;5571;48.110;-1.706;2023-02-28T14:34:55;5.00;;;4.23;;
11034;SDS011;5571;48.110;-1.706;2023-02-28T14:38:05;8.73;;;5.10;;
11034;SDS011;5571;48.110;-1.706;2023-02-28T14:40:38;10.63;;;5.93;;
11034;SDS011;5571;48.110;-1.706;2023-02-28T14:43:06;10.03;;;6.70;;
11034;SDS011;5571;48.110;-1.706;2023-02-28T14:45:44;16.40;;;8.90;;
11034;SDS011;5571;48.110;-1.706;2023-02-28T14:48:16;12.30;;;8.97;;
11034;SDS011;5571;48.110;-1.706;2023-02-28T14:50:48;14.37;;;8.50;;
11034;SDS011;5571;48.110;-1.706;2023-02-28T14:53:19;11.47;;;7.90;;
11034;SDS011;5571;48.110;-1.706;2023-02-28T14:55:47;13.87;;;8.40;;
11034;SDS011;5571;48.110;-1.706;2023-02-28T15:01:18;10.83;;;6.87;;
11034;SDS011;5571;48.110;-1.706;2023-02-28T15:03:46;12.30;;;6.33;;
11034;SDS011;5571;48.110;-1.706;2023-02-28T15:06:13;6.70;;;6.00;;
11034;SDS011;5571;48.110;-1.706;2023-02-28T15:08:43;9.93;;;6.40;;
11034;SDS011;5571;48.110;-1.706;2023-02-28T15:11:13;7.97;;;6.20;;
11034;SDS011;5571;48.110;-1.706;2023-02-28T15:13:51;7.63;;;6.17;;
11034;SDS011;5571;48.110;-1.706;2023-02-28T15:16:22;6.73;;;5.57;;
11034;SDS011;5571;48.110;-1.706;2023-02-28T15:19:00;8.87;;;6.33;;
11034;SDS011;5571;48.110;-1.706;2023-02-28T15:21:36;7.57;;;5.90;;
11034;SDS011;5571;48.110;-1.706;2023-02-28T15:24:14;6.33;;;5.73;;
11034;SDS011;5571;48.110;-1.706;2023-02-28T15:26:49;7.37;;;5.30;;
11034;SDS011;5571;48.110;-1.706;2023-02-28T15:29:20;6.03;;;5.40;;
11034;SDS011;5571;48.110;-1.706;2023-02-28T15:31:55;5.50;;;5.00;;
11034;SDS011;5571;48.110;-1.706;2023-02-28T15:36:59;6.73;;;6.00;;
11034;SDS011;5571;48.110;-1.706;2023-02-28T15:39:26;9.17;;;6.43;;
11034;SDS011;5571;48.110;-1.706;2023-02-28T15:42:09;7.73;;;6.60;;
11034;SDS011;5571;48.110;-1.706;2023-02-28T15:44:36;7.60;;;6.70;;
11034;SDS011;5571;48.110;-1.706;2023-02-28T15:47:03;7.00;;;6.40;;
11034;SDS011;5571;48.110;-1.706;2023-02-28T15:49:47;7.63;;;6.83;;
11034;SDS011;5571;48.110;-1.706;2023-02-28T15:52:21;8.00;;;6.97;;
11034;SDS011;5571;48.110;-1.706;2023-02-28T15:55:21;7.90;;;6.83;;
11034;SDS011;5571;48.110;-1.706;2023-02-28T15:57:51;9.17;;;7.67;;
11034;SDS011;5571;48.110;-1.706;2023-02-28T16:00:21;10.53;;;7.27;;
11034;SDS011;5571;48.110;-1.706;2023-02-28T16:02:48;9.03;;;7.23;;
11034;SDS011;5571;48.110;-1.706;2023-02-28T16:07:40;11.50;;;9.07;;
11034;SDS011;5571;48.110;-1.706;2023-02-28T16:10:09;12.50;;;10.43;;
11034;SDS011;5571;48.110;-1.706;2023-02-28T16:12:37;12.67;;;10.10;;
11034;SDS011;5571;48.110;-1.706;2023-02-28T16:15:20;13.30;;;10.30;;
11034;SDS011;5571;48.110;-1.706;2023-02-28T16:17:49;12.97;;;10.53;;
11034;SDS011;5571;48.110;-1.706;2023-02-28T16:20:16;12.37;;;10.63;;
11034;SDS011;5571;48.110;-1.706;2023-02-28T16:22:46;13.93;;;10.77;;
11034;SDS011;5571;48.110;-1.706;2023-02-28T16:25:15;12.77;;;10.77;;
11034;SDS011;5571;48.110;-1.706;2023-02-28T16:27:42;11.80;;;10.53;;
11034;SDS011;5571;48.110;-1.706;2023-02-28T16:30:22;14.20;;;10.30;;
11034;SDS011;5571;48.110;-1.706;2023-02-28T16:32:50;12.47;;;10.60;;
11034;SDS011;5571;48.110;-1.706;2023-02-28T16:35:17;12.30;;;10.30;;
11034;SDS011;5571;48.110;-1.706;2023-02-28T16:37:44;16.30;;;10.57;;
11034;SDS011;5571;48.110;-1.706;2023-02-28T16:40:13;13.00;;;11.13;;
11034;SDS011;5571;48.110;-1.706;2023-02-28T16:42:41;14.60;;;11.20;;
11034;SDS011;5571;48.110;-1.706;2023-02-28T16:45:11;15.13;;;11.17;;
11034;SDS011;5571;48.110;-1.706;2023-02-28T16:47:41;15.83;;;10.97;;
11034;SDS011;5571;48.110;-1.706;2023-02-28T16:50:17;14.27;;;11.00;;
11034;SDS011;5571;48.110;-1.706;2023-02-28T16:52:45;15.20;;;10.80;;
11034;SDS011;5571;48.110;-1.706;2023-02-28T16:55:11;18.77;;;12.73;;
11034;SDS011;5571;48.110;-1.706;2023-02-28T16:57:37;18.07;;;12.43;;
11034;SDS011;5571;48.110;-1.706;2023-02-28T17:00:04;17.73;;;11.47;;
11034;SDS011;5571;48.110;-1.706;2023-02-28T17:02:31;17.53;;;11.70;;
11034;SDS011;5571;48.110;-1.706;2023-02-28T17:04:56;17.90;;;11.97;;
11034;SDS011;5571;48.110;-1.706;2023-02-28T17:07:22;14.70;;;11.83;;
11034;SDS011;5571;48.110;-1.706;2023-02-28T17:09:48;17.00;;;12.73;;
11034;SDS011;5571;48.110;-1.706;2023-02-28T17:12:13;16.50;;;12.87;;
11034;SDS011;5571;48.110;-1.706;2023-02-28T17:14:39;16.20;;;12.63;;